Pagrindinis puslapis
METAR-TAF:

METAR-TAF

Oro uostai :

Džordžtaunas, Didysis Kaimanas, Kaimanų salos

platuma: 19-17N, ilguma: 081-21W, Aukštis: 3 m

Dabartinis oras

Ataskaita buvo paskelbta 15 minutes, ne 21:00 UTC
Vėjas 9 kt iš Pietryčių
Temperatūra 30°C
Drėgmė 70%
Slėgis 1017 hPa
Matomumas: 7000 m
Mažai debesys ne aukštis 2000 ft

METAR: MWCR 222100Z 13009KT 7000 FEW020 30/24 Q1017 RMK HZ

Laikas: 16:15 (21:15 UTC)

Prognozė

Ataskaita buvo paskelbta 4 valandos ir 15 minutes, ne 17:00 UTC
Prognozė galioja nuo 22 metu 18 UTC su 23 metu 18 UTC
Vėjas 10 kt iš Pietryčių
Matomumas: 8000 m
Mažai debesys ne aukštis 2000 ft
migla
Tikimybė 30% :
Laikinai
nuo 22 metu 20 UTC su 22 metu 22 UTC
Išsisklaidę debesys ne aukštis 1800 ft
lietus
Tikimybė 30% :
Laikinai
nuo 23 metu 12 UTC su 23 metu 18 UTC
Išsisklaidę debesys ne aukštis 1800 ft
lietus

TAF: MWCR 221700Z 2218/2318 13010KT 8000 HZ FEW020 PROB30 TEMPO 2220/2222 SHRA SCT018 PROB30 TEMPO 2312/2318 SHRA SCT018

Orai ataskaitas ir orų prognozės (METAR, TAF).

turimą stotys yra geltonos ir raudonos taškus žemėlapyje.

Perkelti pele per norėdami pamatyti stoties vardą.

Tada spustelėkite, norėdami matyti oro stebėjimo ir prognozės.

Norėdami pakeisti žemėlapį: spustelėkite ant žalios mygtukų su juodo kryžiaus žemyn,; žalią mygtuką su brūkšneliu, jei norite nutolinti; arba žalių rodyklių gretimoms žemėlapius.


METAR-TAF: